createdAt,value
2017-04-29T00:02:23.348Z,30.42
2017-04-29T00:04:51.625Z,28.25
2017-04-29T00:07:19.957Z,30.48
2017-04-29T00:09:48.236Z,28.60
2017-04-29T00:12:16.511Z,28.07
2017-04-29T00:14:44.837Z,31.60
2017-04-29T00:17:13.140Z,29.02
2017-04-29T00:19:42.164Z,30.20
2017-04-29T00:22:10.484Z,31.90
2017-04-29T00:24:38.775Z,27.23
2017-04-29T00:27:07.810Z,29.20
2017-04-29T00:29:36.128Z,26.23
2017-04-29T00:32:04.409Z,28.50
2017-04-29T00:34:32.716Z,26.88
2017-04-29T00:37:01.772Z,27.98
2017-04-29T00:39:30.049Z,26.10
2017-04-29T00:41:58.328Z,27.23
2017-04-29T00:44:26.649Z,24.27
2017-04-29T00:46:54.958Z,25.50
2017-04-29T00:49:23.238Z,29.05
2017-04-29T00:51:51.563Z,26.63
2017-04-29T00:54:19.840Z,26.50
2017-04-29T00:56:48.131Z,26.38
2017-04-29T00:59:17.197Z,28.15
2017-04-29T01:01:45.475Z,25.55
2017-04-29T01:04:13.769Z,29.72
2017-04-29T01:06:42.078Z,26.98
2017-04-29T01:09:10.359Z,28.82
2017-04-29T01:11:38.644Z,27.43
2017-04-29T01:14:06.976Z,31.57
2017-04-29T01:16:35.256Z,30.50
2017-04-29T01:19:03.527Z,28.95
2017-04-29T01:21:31.833Z,29.03
2017-04-29T01:24:00.870Z,29.95
2017-04-29T01:26:29.156Z,30.55
2017-04-29T01:28:57.480Z,30.08
2017-04-29T01:31:26.514Z,31.03
2017-04-29T01:33:54.791Z,32.62
2017-04-29T01:36:23.107Z,32.32
2017-04-29T01:38:51.390Z,29.05
2017-04-29T01:41:19.685Z,28.25
2017-04-29T01:43:48.748Z,30.63
2017-04-29T01:46:17.028Z,28.62
2017-04-29T01:48:45.312Z,29.02
2017-04-29T01:51:13.642Z,29.70
2017-04-29T01:53:49.346Z,32.55
2017-04-29T01:56:17.658Z,28.95
2017-04-29T01:58:46.682Z,30.53
2017-04-29T02:01:14.982Z,26.38
2017-04-29T02:03:43.292Z,29.50
2017-04-29T02:06:11.589Z,27.55
2017-04-29T02:08:40.616Z,27.53
2017-04-29T02:11:08.944Z,26.68
2017-04-29T02:13:37.229Z,25.47
2017-04-29T02:16:05.534Z,27.93
2017-04-29T02:18:33.854Z,33.92
2017-04-29T02:21:02.139Z,29.82
2017-04-29T02:23:30.421Z,35.77
2017-04-29T02:25:58.741Z,31.45
2017-04-29T02:28:27.033Z,28.62
2017-04-29T02:30:55.378Z,33.07
2017-04-29T02:33:24.441Z,32.12
2017-04-29T02:35:52.730Z,31.12
2017-04-29T02:38:21.014Z,32.37
2017-04-29T02:40:49.348Z,34.02
2017-04-29T02:43:17.637Z,30.73
2017-04-29T02:45:45.924Z,29.78
2017-04-29T02:48:14.241Z,33.57
2017-04-29T02:50:42.544Z,33.98
2017-04-29T02:53:10.835Z,34.23
2017-04-29T02:55:39.176Z,28.33
2017-04-29T02:58:07.450Z,29.42
2017-04-29T03:00:36.502Z,33.35
2017-04-29T03:03:04.805Z,31.13
2017-04-29T03:05:33.093Z,35.48
2017-04-29T03:08:01.392Z,29.07
2017-04-29T03:10:29.707Z,31.68
2017-04-29T03:12:58.000Z,32.30
2017-04-29T03:15:26.285Z,32.90
2017-04-29T03:17:54.586Z,32.57
2017-04-29T03:20:23.624Z,38.35
2017-04-29T03:22:51.909Z,34.70
2017-04-29T03:25:20.236Z,33.67
2017-04-29T03:27:48.522Z,33.83
2017-04-29T03:30:17.554Z,36.87
2017-04-29T03:32:45.876Z,37.95
2017-04-29T03:35:14.157Z,34.37
2017-04-29T03:37:42.444Z,35.87
2017-04-29T03:40:10.763Z,35.58
2017-04-29T03:42:39.040Z,36.78
2017-04-29T03:45:07.318Z,38.47
2017-04-29T03:47:35.630Z,35.08
2017-04-29T03:50:03.908Z,37.25
2017-04-29T03:52:32.194Z,35.92
2017-04-29T03:55:00.504Z,30.28
2017-04-29T03:57:29.537Z,34.55
2017-04-29T03:59:57.813Z,39.85
2017-04-29T04:02:26.134Z,35.58
2017-04-29T04:04:54.420Z,40.67
2017-04-29T04:07:22.704Z,34.90
2017-04-29T04:09:51.026Z,38.82
2017-04-29T04:12:19.300Z,35.10
2017-04-29T04:14:47.580Z,38.42
2017-04-29T04:17:15.889Z,35.55
2017-04-29T04:19:44.173Z,34.43
2017-04-29T04:22:12.448Z,37.83
2017-04-29T04:24:40.819Z,36.22
2017-04-29T04:27:09.098Z,40.97
2017-04-29T04:29:37.393Z,35.52
2017-04-29T04:32:05.720Z,36.75
2017-04-29T04:34:33.991Z,40.30
2017-04-29T04:37:02.273Z,36.95
2017-04-29T04:39:30.594Z,37.53
2017-04-29T04:41:58.884Z,35.75
2017-04-29T04:44:27.165Z,36.03
2017-04-29T04:46:55.484Z,33.32
2017-04-29T04:49:23.769Z,35.87
2017-04-29T04:51:52.055Z,35.17
2017-04-29T04:54:20.378Z,35.32
2017-04-29T04:56:48.661Z,32.32
2017-04-29T04:59:16.950Z,33.85
2017-04-29T05:01:46.026Z,37.85
2017-04-29T05:04:14.317Z,36.85
2017-04-29T05:06:42.605Z,32.85
2017-04-29T05:09:10.943Z,34.32
2017-04-29T05:11:39.256Z,35.58
2017-04-29T05:14:08.281Z,34.40
2017-04-29T05:16:36.601Z,34.23
2017-04-29T05:19:04.879Z,38.67
2017-04-29T05:21:33.177Z,37.12
2017-04-29T05:24:01.499Z,40.23
2017-04-29T05:26:29.791Z,34.12
2017-04-29T05:28:58.092Z,31.55
2017-04-29T05:31:26.404Z,32.47
2017-04-29T05:33:55.437Z,35.08
2017-04-29T05:36:23.719Z,30.05
2017-04-29T05:38:52.050Z,34.23
2017-04-29T05:41:20.335Z,32.65
2017-04-29T05:43:49.381Z,32.68
2017-04-29T05:46:17.708Z,30.05
2017-04-29T05:48:46.751Z,32.18
2017-04-29T05:51:15.046Z,33.92
2017-04-29T05:53:43.369Z,30.40
2017-04-29T05:56:12.384Z,29.55
2017-04-29T05:58:40.661Z,33.20
2017-04-29T06:01:08.974Z,30.22
2017-04-29T06:03:37.264Z,31.62
2017-04-29T06:06:05.547Z,33.02
2017-04-29T06:08:33.871Z,30.95
2017-04-29T06:11:02.156Z,32.18
2017-04-29T06:13:30.433Z,30.70
2017-04-29T06:15:58.752Z,31.95
2017-04-29T06:18:27.046Z,32.53
2017-04-29T06:20:55.361Z,31.12
2017-04-29T06:23:23.684Z,30.75
2017-04-29T06:25:51.965Z,32.70
2017-04-29T06:28:20.245Z,30.80
2017-04-29T06:30:48.572Z,30.13
2017-04-29T06:33:16.856Z,36.98
2017-04-29T06:35:45.145Z,30.72
2017-04-29T06:38:13.468Z,30.18
2017-04-29T06:40:41.756Z,31.03
2017-04-29T06:43:10.790Z,29.07
2017-04-29T06:45:39.118Z,28.10
2017-04-29T06:48:07.402Z,28.62
2017-04-29T06:50:35.690Z,28.90
2017-04-29T06:53:04.013Z,27.78
2017-04-29T06:55:32.304Z,29.67
2017-04-29T06:58:00.609Z,28.15
2017-04-29T07:00:28.949Z,25.52
2017-04-29T07:02:57.240Z,25.68
2017-04-29T07:05:25.528Z,25.75
2017-04-29T07:07:53.856Z,23.50
2017-04-29T07:10:22.145Z,25.08
2017-04-29T07:12:50.440Z,24.18
2017-04-29T07:15:21.734Z,23.88
2017-04-29T07:17:50.772Z,25.03
2017-04-29T07:20:19.062Z,23.07
2017-04-29T07:22:47.394Z,23.72
2017-04-29T07:25:17.363Z,23.78
2017-04-29T07:27:45.702Z,22.42
2017-04-29T07:30:15.273Z,23.93
2017-04-29T07:32:43.553Z,21.65
2017-04-29T07:35:11.849Z,24.40
2017-04-29T07:37:40.173Z,22.87
2017-04-29T07:40:11.925Z,23.13
2017-04-29T07:45:19.176Z,24.45
2017-04-29T07:47:48.168Z,24.85
2017-04-29T07:50:17.971Z,25.20
2017-04-29T07:52:47.085Z,22.72
2017-04-29T07:55:16.781Z,23.70
2017-04-29T07:57:45.238Z,22.18
2017-04-29T08:00:18.399Z,24.13
2017-04-29T08:02:55.179Z,23.83
2017-04-29T08:05:23.607Z,27.12
2017-04-29T08:07:52.005Z,29.27
2017-04-29T08:10:20.284Z,27.20
2017-04-29T08:12:48.602Z,23.62
2017-04-29T08:15:17.615Z,21.18
2017-04-29T08:17:45.895Z,20.33
2017-04-29T08:20:14.221Z,16.38
2017-04-29T08:22:42.566Z,17.78
2017-04-29T08:25:10.871Z,16.95
2017-04-29T08:27:39.185Z,15.88
2017-04-29T08:30:08.214Z,17.18
2017-04-29T08:32:36.533Z,18.88
2017-04-29T08:35:04.859Z,18.52
2017-04-29T08:37:33.151Z,18.90
2017-04-29T08:40:01.439Z,19.88
2017-04-29T08:42:29.779Z,18.38
2017-04-29T08:44:58.808Z,20.82
2017-04-29T08:47:27.092Z,19.98
2017-04-29T08:49:55.422Z,18.83
2017-04-29T08:52:24.456Z,17.93
2017-04-29T08:54:52.746Z,18.98
2017-04-29T08:57:21.060Z,19.43
2017-04-29T08:59:49.340Z,18.30
2017-04-29T09:02:17.627Z,18.08
2017-04-29T09:04:46.700Z,18.65
2017-04-29T09:07:14.991Z,18.05
2017-04-29T09:09:43.269Z,19.25
2017-04-29T09:12:11.597Z,16.73
2017-04-29T09:14:39.875Z,17.73
2017-04-29T09:17:08.157Z,18.05
2017-04-29T09:19:36.501Z,19.72
2017-04-29T09:22:04.800Z,17.63
2017-04-29T09:24:33.096Z,18.23
2017-04-29T09:27:01.426Z,17.97
2017-04-29T09:29:33.404Z,17.73
2017-04-29T09:32:02.469Z,18.15
2017-04-29T09:34:30.750Z,17.30
2017-04-29T09:36:59.037Z,16.07
2017-04-29T09:39:28.120Z,16.15
2017-04-29T09:41:56.404Z,19.18
2017-04-29T09:44:24.691Z,17.23
2017-04-29T09:46:53.015Z,15.97
2017-04-29T09:49:21.305Z,17.30
2017-04-29T09:51:49.603Z,15.77
2017-04-29T09:54:17.932Z,17.17
2017-04-29T09:56:46.218Z,14.40
2017-04-29T09:59:14.533Z,16.87
2017-04-29T10:01:42.859Z,16.03
2017-04-29T10:04:11.888Z,16.20
2017-04-29T10:06:40.171Z,16.68
2017-04-29T10:09:08.488Z,16.62
2017-04-29T10:11:36.772Z,15.02
2017-04-29T10:14:05.984Z,16.73
2017-04-29T10:16:34.305Z,15.05
2017-04-29T10:19:03.514Z,16.25
2017-04-29T10:21:31.808Z,15.45
2017-04-29T10:24:00.140Z,15.37
2017-04-29T10:26:28.436Z,15.65
2017-04-29T10:28:56.736Z,15.30
2017-04-29T10:31:25.075Z,14.80
2017-04-29T10:33:53.373Z,14.03
2017-04-29T10:36:21.661Z,14.58
2017-04-29T10:38:49.989Z,14.13
2017-04-29T10:41:19.011Z,14.00
2017-04-29T10:43:47.295Z,14.78
2017-04-29T10:46:15.624Z,15.27
2017-04-29T10:48:44.708Z,13.02
2017-04-29T10:51:12.992Z,13.82
2017-04-29T10:53:41.337Z,13.58
2017-04-29T10:56:09.672Z,13.77
2017-04-29T10:58:37.991Z,14.37
2017-04-29T11:01:06.332Z,12.35
2017-04-29T11:03:35.364Z,13.72
2017-04-29T11:06:03.679Z,13.75
2017-04-29T11:08:32.010Z,12.87
2017-04-29T11:11:00.326Z,12.68
2017-04-29T11:13:28.646Z,13.83
2017-04-29T11:15:56.971Z,12.80
2017-04-29T11:18:25.266Z,11.97
2017-04-29T11:20:53.565Z,13.05
2017-04-29T11:23:22.636Z,13.67
2017-04-29T11:25:50.979Z,11.50
2017-04-29T11:28:19.294Z,12.85
2017-04-29T11:30:47.594Z,12.45
2017-04-29T11:33:15.950Z,13.58
2017-04-29T11:35:44.248Z,14.83
2017-04-29T11:38:12.598Z,12.32
2017-04-29T11:40:40.888Z,13.38
2017-04-29T11:43:09.199Z,13.12
2017-04-29T11:45:37.550Z,11.95
2017-04-29T11:48:05.854Z,11.60
2017-04-29T11:50:34.144Z,11.92
2017-04-29T11:53:02.490Z,10.77
2017-04-29T11:55:30.791Z,13.60
2017-04-29T11:57:59.834Z,12.12
2017-04-29T12:00:28.168Z,11.47
2017-04-29T12:02:57.224Z,11.98
2017-04-29T12:05:25.514Z,12.28
2017-04-29T12:07:53.845Z,11.08
2017-04-29T12:10:22.129Z,11.63
2017-04-29T12:12:50.428Z,11.37
2017-04-29T12:15:18.810Z,11.48
2017-04-29T12:17:47.091Z,10.88
2017-04-29T12:20:18.929Z,11.28
2017-04-29T12:22:47.209Z,10.08
2017-04-29T12:25:15.505Z,11.03
2017-04-29T12:27:43.831Z,11.02
2017-04-29T12:30:12.125Z,10.00
2017-04-29T12:32:40.413Z,10.45
2017-04-29T12:35:08.768Z,10.27
2017-04-29T12:37:37.045Z,9.48
2017-04-29T12:40:06.067Z,10.00
2017-04-29T12:42:34.397Z,10.03
2017-04-29T12:45:02.681Z,7.00
2017-04-29T12:47:30.973Z,6.67
2017-04-29T12:50:00.039Z,6.50
2017-04-29T12:52:28.316Z,6.05
2017-04-29T12:54:56.589Z,3.98
2017-04-29T12:57:24.908Z,4.18
2017-04-29T12:59:53.932Z,3.98
2017-04-29T13:02:22.221Z,4.28
2017-04-29T13:04:50.548Z,4.17
2017-04-29T13:07:19.567Z,4.55
2017-04-29T13:09:47.853Z,4.88
2017-04-29T13:12:16.202Z,6.78
2017-04-29T13:14:44.521Z,6.53
2017-04-29T13:17:12.807Z,6.67
2017-04-29T13:19:41.121Z,6.82
2017-04-29T13:22:09.397Z,7.02
2017-04-29T13:24:37.682Z,7.10
2017-04-29T13:27:06.009Z,7.18
2017-04-29T13:29:34.298Z,7.05
2017-04-29T13:32:02.590Z,7.93
2017-04-29T13:34:30.914Z,7.55
2017-04-29T13:36:59.933Z,7.60
2017-04-29T13:39:28.210Z,6.15
2017-04-29T13:41:56.529Z,6.55
2017-04-29T13:44:24.817Z,6.52
2017-04-29T13:46:53.098Z,6.55
2017-04-29T13:49:21.424Z,6.38
2017-04-29T13:51:49.697Z,8.07
2017-04-29T13:54:18.066Z,6.00
2017-04-29T13:56:47.129Z,6.38
2017-04-29T13:59:15.424Z,6.28
2017-04-29T14:01:44.440Z,6.70
2017-04-29T14:04:13.667Z,5.70
2017-04-29T14:06:41.961Z,6.78
2017-04-29T14:09:10.241Z,6.90
2017-04-29T14:11:38.576Z,6.62
2017-04-29T14:14:06.857Z,5.77
2017-04-29T14:16:35.154Z,6.70
2017-04-29T14:19:03.453Z,6.82
2017-04-29T14:21:31.733Z,5.95
2017-04-29T14:24:00.047Z,7.08
2017-04-29T14:26:29.060Z,7.38
2017-04-29T14:28:57.343Z,6.88
2017-04-29T14:31:25.656Z,7.88
2017-04-29T14:33:53.933Z,7.35
2017-04-29T14:36:22.203Z,7.40
2017-04-29T14:38:50.524Z,6.93
2017-04-29T14:41:19.551Z,8.18
2017-04-29T14:43:47.829Z,6.72
2017-04-29T14:46:16.148Z,6.78
2017-04-29T14:48:44.424Z,8.30
2017-04-29T14:51:12.705Z,6.55
2017-04-29T14:53:41.014Z,6.72
2017-04-29T14:56:10.033Z,7.00
2017-04-29T14:58:38.313Z,5.77
2017-04-29T15:01:06.633Z,8.20
2017-04-29T15:03:35.116Z,6.62
2017-04-29T15:06:03.396Z,6.97
2017-04-29T15:08:31.712Z,7.15
2017-04-29T15:11:00.728Z,5.75
2017-04-29T15:13:29.006Z,6.92
2017-04-29T15:15:57.329Z,7.87
2017-04-29T15:18:25.608Z,6.77
2017-04-29T15:20:54.824Z,7.03
2017-04-29T15:23:23.141Z,5.92
2017-04-29T15:25:51.423Z,6.25
2017-04-29T15:28:19.705Z,5.30
2017-04-29T15:30:48.017Z,6.10
2017-04-29T15:33:16.288Z,6.57
2017-04-29T15:35:44.572Z,6.95
2017-04-29T15:38:12.882Z,6.60
2017-04-29T15:40:41.903Z,7.65
2017-04-29T15:43:17.104Z,8.52
2017-04-29T15:45:45.377Z,8.47
2017-04-29T15:48:17.166Z,8.22
2017-04-29T15:53:26.973Z,8.22
2017-04-29T15:55:57.141Z,7.27
2017-04-29T15:58:28.742Z,7.07
2017-04-29T16:01:00.263Z,6.10
2017-04-29T16:03:29.842Z,5.98
2017-04-29T16:06:01.853Z,5.53
2017-04-29T16:11:05.884Z,5.35
2017-04-29T16:16:10.741Z,4.03
2017-04-29T16:23:36.473Z,4.75
2017-04-29T16:26:07.818Z,5.30
2017-04-29T16:28:36.845Z,3.70
2017-04-29T16:31:05.128Z,4.38
2017-04-29T16:33:33.440Z,4.37
2017-04-29T16:36:01.751Z,10.77
2017-04-29T16:38:30.808Z,4.83
2017-04-29T16:40:59.111Z,6.17
2017-04-29T16:43:28.141Z,5.12
2017-04-29T16:45:56.455Z,5.03
2017-04-29T16:48:24.748Z,4.35
2017-04-29T16:50:53.052Z,4.65
2017-04-29T16:53:22.077Z,3.47
2017-04-29T16:55:50.389Z,3.93
2017-04-29T16:58:18.673Z,4.63
2017-04-29T17:00:46.978Z,5.88
2017-04-29T17:03:16.013Z,4.20
2017-04-29T17:05:44.299Z,5.05
2017-04-29T17:08:12.591Z,4.75
2017-04-29T17:10:40.884Z,4.70
2017-04-29T17:13:09.209Z,5.08
2017-04-29T17:15:37.484Z,4.10
2017-04-29T17:18:05.763Z,4.83
2017-04-29T17:20:34.063Z,4.40
2017-04-29T17:23:02.343Z,5.07
2017-04-29T17:25:30.659Z,3.27
2017-04-29T17:27:58.932Z,4.87
2017-04-29T17:30:27.259Z,4.30
2017-04-29T17:32:55.527Z,4.15
2017-04-29T17:35:23.809Z,4.72
2017-04-29T17:37:52.109Z,4.73
2017-04-29T17:40:20.393Z,4.35
2017-04-29T17:42:48.673Z,6.12
2017-04-29T17:45:17.005Z,5.02
2017-04-29T17:47:46.023Z,4.33
2017-04-29T17:50:14.300Z,4.55
2017-04-29T17:52:42.617Z,3.33
2017-04-29T17:55:10.895Z,3.82
2017-04-29T17:57:39.172Z,3.73
2017-04-29T18:00:07.511Z,4.00
2017-04-29T18:02:35.791Z,3.63
2017-04-29T18:05:04.075Z,4.03
2017-04-29T18:07:32.377Z,5.35
2017-04-29T18:10:00.649Z,3.87
2017-04-29T18:12:28.927Z,4.32
2017-04-29T18:14:57.249Z,4.18
2017-04-29T18:17:26.315Z,5.47
2017-04-29T18:19:54.584Z,4.55
2017-04-29T18:22:22.911Z,6.10
2017-04-29T18:24:51.926Z,4.95
2017-04-29T18:27:20.200Z,5.78
2017-04-29T18:29:48.532Z,4.65
2017-04-29T18:32:16.804Z,7.57
2017-04-29T18:34:45.076Z,6.68
2017-04-29T18:37:13.383Z,5.15
2017-04-29T18:39:41.654Z,8.23
2017-04-29T18:42:09.924Z,5.90
2017-04-29T18:44:38.233Z,6.50
2017-04-29T18:47:07.256Z,5.27
2017-04-29T18:49:35.529Z,5.42
2017-04-29T18:52:03.833Z,5.88
2017-04-29T18:54:32.115Z,6.75
2017-04-29T18:57:00.399Z,5.48
2017-04-29T18:59:28.706Z,5.58
2017-04-29T19:01:57.720Z,4.92
2017-04-29T19:04:26.001Z,5.60
2017-04-29T19:06:54.329Z,5.12
2017-04-29T19:09:22.669Z,5.18
2017-04-29T19:11:50.945Z,5.23
2017-04-29T19:14:19.276Z,5.20
2017-04-29T19:16:47.642Z,7.48
2017-04-29T19:19:15.916Z,6.60
2017-04-29T19:21:44.217Z,7.07
2017-04-29T19:24:12.489Z,6.78
2017-04-29T19:26:40.793Z,6.72
2017-04-29T19:29:09.852Z,6.72
2017-04-29T19:31:38.129Z,6.88
2017-04-29T19:34:06.400Z,6.78
2017-04-29T19:36:34.709Z,6.80
2017-04-29T19:39:03.059Z,7.42
2017-04-29T19:41:31.333Z,6.77
2017-04-29T19:43:59.641Z,6.67
2017-04-29T19:46:27.908Z,7.08
2017-04-29T19:48:56.193Z,6.47
2017-04-29T19:51:24.499Z,9.92
2017-04-29T19:53:53.520Z,9.55
2017-04-29T19:56:21.801Z,8.77
2017-04-29T19:58:50.137Z,8.37
2017-04-29T20:01:19.168Z,10.62
2017-04-29T20:03:47.452Z,7.35
2017-04-29T20:06:15.788Z,7.20
2017-04-29T20:08:44.814Z,8.17
2017-04-29T20:11:13.100Z,8.48
2017-04-29T20:13:41.430Z,9.47
2017-04-29T20:16:09.722Z,8.27
2017-04-29T20:18:38.757Z,9.20
2017-04-29T20:21:07.067Z,8.75
2017-04-29T20:23:35.342Z,8.23
2017-04-29T20:26:03.660Z,8.83
2017-04-29T20:28:32.709Z,8.45
2017-04-29T20:31:00.988Z,10.08
2017-04-29T20:33:29.683Z,10.02
2017-04-29T20:35:57.996Z,7.47
2017-04-29T20:38:27.017Z,7.97
2017-04-29T20:40:55.333Z,9.87
2017-04-29T20:43:23.641Z,8.82
2017-04-29T20:45:52.656Z,8.45
2017-04-29T20:48:20.936Z,13.00
2017-04-29T20:50:50.053Z,14.75
2017-04-29T20:53:18.323Z,11.55
2017-04-29T20:55:46.606Z,12.22
2017-04-29T20:58:14.923Z,10.07
2017-04-29T21:00:43.200Z,10.67
2017-04-29T21:03:11.495Z,9.58
2017-04-29T21:05:39.824Z,11.02
2017-04-29T21:08:08.100Z,11.22
2017-04-29T21:10:36.390Z,12.90
2017-04-29T21:13:04.713Z,10.87
2017-04-29T21:15:33.736Z,10.88
2017-04-29T21:18:02.336Z,12.10
2017-04-29T21:20:30.640Z,9.52
2017-04-29T21:22:58.929Z,11.65
2017-04-29T21:25:27.210Z,10.88
2017-04-29T21:27:55.536Z,9.90
2017-04-29T21:30:23.820Z,11.18
2017-04-29T21:32:52.100Z,11.63
2017-04-29T21:35:20.429Z,11.77
2017-04-29T21:37:48.721Z,10.63
2017-04-29T21:40:17.749Z,13.07
2017-04-29T21:42:46.076Z,11.72
2017-04-29T21:45:20.049Z,10.12
2017-04-29T21:47:48.366Z,11.18
2017-04-29T21:50:16.646Z,12.07
2017-04-29T21:52:44.928Z,12.43
2017-04-29T21:55:13.256Z,12.07
2017-04-29T21:57:41.533Z,12.25
2017-04-29T22:00:09.892Z,14.87
2017-04-29T22:02:38.220Z,12.37
2017-04-29T22:05:06.495Z,13.47
2017-04-29T22:07:34.780Z,13.13
2017-04-29T22:10:03.099Z,12.47
2017-04-29T22:12:31.435Z,11.85
2017-04-29T22:14:59.717Z,18.30
2017-04-29T22:17:28.024Z,13.68
2017-04-29T22:19:57.048Z,13.50
2017-04-29T22:22:25.347Z,13.00
2017-04-29T22:24:53.640Z,12.70
2017-04-29T22:27:21.938Z,11.47
2017-04-29T22:29:50.253Z,13.50
2017-04-29T22:32:18.531Z,13.85
2017-04-29T22:34:46.830Z,12.58
2017-04-29T22:37:15.130Z,12.62
2017-04-29T22:39:43.408Z,12.72
2017-04-29T22:42:11.725Z,13.38
2017-04-29T22:44:40.006Z,13.73
2017-04-29T22:47:08.288Z,13.83
2017-04-29T22:49:36.606Z,13.23
2017-04-29T22:52:04.883Z,13.58
2017-04-29T22:54:33.233Z,14.38
2017-04-29T22:57:01.521Z,13.82
2017-04-29T22:59:29.815Z,14.25
2017-04-29T23:01:58.131Z,14.92
2017-04-29T23:04:26.416Z,17.28
2017-04-29T23:06:55.571Z,16.48
2017-04-29T23:09:23.860Z,14.37
2017-04-29T23:11:52.135Z,17.52
2017-04-29T23:14:22.357Z,14.42
2017-04-29T23:16:50.652Z,16.47
2017-04-29T23:19:18.967Z,16.58
2017-04-29T23:21:47.985Z,16.52
2017-04-29T23:24:16.267Z,17.25
2017-04-29T23:26:44.732Z,16.10
2017-04-29T23:29:13.018Z,16.15
2017-04-29T23:31:41.332Z,15.27
2017-04-29T23:34:09.612Z,17.30
2017-04-29T23:36:37.913Z,15.35
2017-04-29T23:39:06.215Z,14.78
2017-04-29T23:41:35.241Z,16.98
2017-04-29T23:44:03.611Z,15.67
2017-04-29T23:46:31.901Z,16.02
2017-04-29T23:49:00.184Z,17.12
2017-04-29T23:51:28.501Z,16.55
2017-04-29T23:53:56.785Z,18.25
2017-04-29T23:56:25.100Z,17.03
2017-04-29T23:58:53.384Z,16.55
